sensor_id;sensor_type;location;lat;lon;timestamp;P1;durP1;ratioP1;P2;durP2;ratioP2
55915;SDS011;41826;53.246;-6.670;2023-04-03T00:00:58;7.93;;;3.90;;
55915;SDS011;41826;53.246;-6.670;2023-04-03T00:03:23;7.25;;;3.90;;
55915;SDS011;41826;53.246;-6.670;2023-04-03T00:05:49;8.80;;;3.90;;
55915;SDS011;41826;53.246;-6.670;2023-04-03T00:08:14;9.38;;;3.70;;
55915;SDS011;41826;53.246;-6.670;2023-04-03T00:10:40;7.07;;;3.78;;
55915;SDS011;41826;53.246;-6.670;2023-04-03T00:13:06;9.25;;;3.55;;
55915;SDS011;41826;53.246;-6.670;2023-04-03T00:15:33;7.53;;;3.08;;
55915;SDS011;41826;53.246;-6.670;2023-04-03T00:17:59;7.55;;;3.55;;
55915;SDS011;41826;53.246;-6.670;2023-04-03T00:20:25;7.15;;;2.95;;
55915;SDS011;41826;53.246;-6.670;2023-04-03T00:22:52;4.82;;;2.30;;
55915;SDS011;41826;53.246;-6.670;2023-04-03T00:25:17;7.22;;;3.25;;
55915;SDS011;41826;53.246;-6.670;2023-04-03T00:27:43;3.35;;;2.08;;
55915;SDS011;41826;53.246;-6.670;2023-04-03T00:30:09;4.60;;;2.28;;
55915;SDS011;41826;53.246;-6.670;2023-04-03T00:32:37;4.55;;;2.35;;
55915;SDS011;41826;53.246;-6.670;2023-04-03T00:35:03;3.13;;;1.92;;
55915;SDS011;41826;53.246;-6.670;2023-04-03T00:37:28;8.40;;;4.13;;
55915;SDS011;41826;53.246;-6.670;2023-04-03T00:39:54;2.53;;;1.98;;
55915;SDS011;41826;53.246;-6.670;2023-04-03T00:42:19;2.60;;;1.90;;
55915;SDS011;41826;53.246;-6.670;2023-04-03T00:47:11;3.75;;;2.45;;
55915;SDS011;41826;53.246;-6.670;2023-04-03T00:49:38;10.60;;;5.03;;
55915;SDS011;41826;53.246;-6.670;2023-04-03T00:52:08;4.20;;;3.08;;
55915;SDS011;41826;53.246;-6.670;2023-04-03T00:54:38;8.07;;;4.80;;
55915;SDS011;41826;53.246;-6.670;2023-04-03T00:57:06;4.90;;;2.53;;
55915;SDS011;41826;53.246;-6.670;2023-04-03T00:59:34;3.22;;;2.38;;
55915;SDS011;41826;53.246;-6.670;2023-04-03T01:02:05;3.45;;;2.50;;
55915;SDS011;41826;53.246;-6.670;2023-04-03T01:04:34;3.25;;;2.70;;
55915;SDS011;41826;53.246;-6.670;2023-04-03T01:07:03;3.35;;;2.60;;
55915;SDS011;41826;53.246;-6.670;2023-04-03T01:14:45;6.22;;;4.18;;
55915;SDS011;41826;53.246;-6.670;2023-04-03T01:17:27;3.40;;;2.38;;
55915;SDS011;41826;53.246;-6.670;2023-04-03T01:19:57;6.65;;;3.72;;
55915;SDS011;41826;53.246;-6.670;2023-04-03T01:28:03;7.38;;;4.55;;
55915;SDS011;41826;53.246;-6.670;2023-04-03T01:30:32;11.13;;;4.25;;
55915;SDS011;41826;53.246;-6.670;2023-04-03T01:33:01;5.20;;;2.72;;
55915;SDS011;41826;53.246;-6.670;2023-04-03T01:35:27;3.58;;;2.38;;
55915;SDS011;41826;53.246;-6.670;2023-04-03T01:37:52;3.00;;;2.53;;
55915;SDS011;41826;53.246;-6.670;2023-04-03T01:40:18;5.68;;;2.58;;
55915;SDS011;41826;53.246;-6.670;2023-04-03T01:42:43;3.47;;;2.20;;
55915;SDS011;41826;53.246;-6.670;2023-04-03T01:45:08;4.22;;;2.50;;
55915;SDS011;41826;53.246;-6.670;2023-04-03T01:47:34;5.97;;;3.53;;
55915;SDS011;41826;53.246;-6.670;2023-04-03T01:50:00;3.17;;;2.30;;
55915;SDS011;41826;53.246;-6.670;2023-04-03T01:52:25;3.28;;;2.10;;
55915;SDS011;41826;53.246;-6.670;2023-04-03T01:54:51;2.83;;;1.70;;
55915;SDS011;41826;53.246;-6.670;2023-04-03T01:57:16;4.43;;;2.70;;
55915;SDS011;41826;53.246;-6.670;2023-04-03T01:59:42;2.25;;;1.70;;
55915;SDS011;41826;53.246;-6.670;2023-04-03T02:02:07;2.67;;;1.98;;
55915;SDS011;41826;53.246;-6.670;2023-04-03T02:04:33;2.90;;;2.20;;
55915;SDS011;41826;53.246;-6.670;2023-04-03T02:06:58;5.80;;;2.15;;
55915;SDS011;41826;53.246;-6.670;2023-04-03T02:09:24;5.55;;;2.80;;
55915;SDS011;41826;53.246;-6.670;2023-04-03T02:11:49;6.68;;;4.00;;
55915;SDS011;41826;53.246;-6.670;2023-04-03T02:14:15;8.05;;;3.63;;
55915;SDS011;41826;53.246;-6.670;2023-04-03T02:16:40;6.43;;;3.40;;
55915;SDS011;41826;53.246;-6.670;2023-04-03T02:19:05;8.00;;;3.80;;
55915;SDS011;41826;53.246;-6.670;2023-04-03T02:21:31;8.25;;;3.08;;
55915;SDS011;41826;53.246;-6.670;2023-04-03T02:23:56;5.85;;;3.22;;
55915;SDS011;41826;53.246;-6.670;2023-04-03T02:26:22;2.78;;;2.10;;
55915;SDS011;41826;53.246;-6.670;2023-04-03T02:28:47;2.67;;;1.70;;
55915;SDS011;41826;53.246;-6.670;2023-04-03T02:31:13;2.83;;;1.80;;
55915;SDS011;41826;53.246;-6.670;2023-04-03T02:33:38;2.22;;;1.50;;
55915;SDS011;41826;53.246;-6.670;2023-04-03T02:36:04;2.58;;;1.35;;
55915;SDS011;41826;53.246;-6.670;2023-04-03T02:38:31;2.55;;;1.27;;
55915;SDS011;41826;53.246;-6.670;2023-04-03T02:41:01;1.40;;;1.30;;
55915;SDS011;41826;53.246;-6.670;2023-04-03T02:43:31;1.80;;;1.20;;
55915;SDS011;41826;53.246;-6.670;2023-04-03T02:45:57;1.13;;;1.02;;
55915;SDS011;41826;53.246;-6.670;2023-04-03T02:48:22;1.50;;;1.30;;
55915;SDS011;41826;53.246;-6.670;2023-04-03T02:50:48;2.75;;;1.35;;
55915;SDS011;41826;53.246;-6.670;2023-04-03T02:53:14;3.35;;;1.33;;
55915;SDS011;41826;53.246;-6.670;2023-04-03T02:55:40;1.67;;;1.40;;
55915;SDS011;41826;53.246;-6.670;2023-04-03T02:58:06;1.70;;;1.45;;
55915;SDS011;41826;53.246;-6.670;2023-04-03T03:00:31;3.92;;;1.50;;
55915;SDS011;41826;53.246;-6.670;2023-04-03T03:02:57;5.78;;;1.42;;
55915;SDS011;41826;53.246;-6.670;2023-04-03T03:05:22;4.55;;;1.65;;
55915;SDS011;41826;53.246;-6.670;2023-04-03T03:07:48;1.75;;;1.50;;
55915;SDS011;41826;53.246;-6.670;2023-04-03T03:10:13;1.50;;;1.17;;
55915;SDS011;41826;53.246;-6.670;2023-04-03T03:12:39;1.58;;;1.27;;
55915;SDS011;41826;53.246;-6.670;2023-04-03T03:15:05;5.55;;;1.48;;
55915;SDS011;41826;53.246;-6.670;2023-04-03T03:17:31;2.88;;;1.52;;
55915;SDS011;41826;53.246;-6.670;2023-04-03T03:19:57;4.63;;;2.10;;
55915;SDS011;41826;53.246;-6.670;2023-04-03T03:22:22;3.63;;;1.23;;
55915;SDS011;41826;53.246;-6.670;2023-04-03T03:24:48;2.42;;;1.38;;
55915;SDS011;41826;53.246;-6.670;2023-04-03T03:27:13;1.25;;;1.08;;
55915;SDS011;41826;53.246;-6.670;2023-04-03T03:29:38;2.05;;;1.55;;
55915;SDS011;41826;53.246;-6.670;2023-04-03T03:32:04;2.90;;;1.38;;
55915;SDS011;41826;53.246;-6.670;2023-04-03T03:34:29;1.45;;;1.00;;
55915;SDS011;41826;53.246;-6.670;2023-04-03T03:36:55;5.53;;;1.58;;
55915;SDS011;41826;53.246;-6.670;2023-04-03T03:39:20;1.75;;;1.33;;
55915;SDS011;41826;53.246;-6.670;2023-04-03T03:41:46;2.50;;;1.85;;
55915;SDS011;41826;53.246;-6.670;2023-04-03T03:44:11;2.33;;;1.73;;
55915;SDS011;41826;53.246;-6.670;2023-04-03T03:46:36;1.30;;;1.20;;
55915;SDS011;41826;53.246;-6.670;2023-04-03T03:49:02;1.58;;;1.40;;
55915;SDS011;41826;53.246;-6.670;2023-04-03T03:51:27;1.88;;;1.52;;
55915;SDS011;41826;53.246;-6.670;2023-04-03T03:53:53;1.38;;;1.08;;
55915;SDS011;41826;53.246;-6.670;2023-04-03T03:56:18;3.22;;;1.77;;
55915;SDS011;41826;53.246;-6.670;2023-04-03T03:58:43;2.33;;;1.55;;
55915;SDS011;41826;53.246;-6.670;2023-04-03T04:01:09;1.80;;;1.63;;
55915;SDS011;41826;53.246;-6.670;2023-04-03T04:03:35;1.60;;;1.50;;
55915;SDS011;41826;53.246;-6.670;2023-04-03T04:06:00;1.15;;;1.00;;
55915;SDS011;41826;53.246;-6.670;2023-04-03T04:08:25;2.50;;;1.88;;
55915;SDS011;41826;53.246;-6.670;2023-04-03T04:10:51;2.30;;;2.10;;
55915;SDS011;41826;53.246;-6.670;2023-04-03T04:13:16;5.72;;;2.95;;
55915;SDS011;41826;53.246;-6.670;2023-04-03T04:15:42;2.38;;;1.35;;
55915;SDS011;41826;53.246;-6.670;2023-04-03T04:18:08;2.20;;;2.00;;
55915;SDS011;41826;53.246;-6.670;2023-04-03T04:20:33;1.48;;;1.33;;
55915;SDS011;41826;53.246;-6.670;2023-04-03T04:22:59;1.75;;;1.40;;
55915;SDS011;41826;53.246;-6.670;2023-04-03T04:25:24;2.47;;;1.42;;
55915;SDS011;41826;53.246;-6.670;2023-04-03T04:27:50;4.10;;;2.90;;
55915;SDS011;41826;53.246;-6.670;2023-04-03T04:30:15;3.42;;;2.67;;
55915;SDS011;41826;53.246;-6.670;2023-04-03T04:32:41;2.67;;;2.47;;
55915;SDS011;41826;53.246;-6.670;2023-04-03T04:35:06;3.45;;;2.47;;
55915;SDS011;41826;53.246;-6.670;2023-04-03T04:37:32;3.33;;;2.83;;
55915;SDS011;41826;53.246;-6.670;2023-04-03T04:39:58;2.45;;;2.25;;
55915;SDS011;41826;53.246;-6.670;2023-04-03T04:42:23;2.65;;;2.28;;
55915;SDS011;41826;53.246;-6.670;2023-04-03T04:44:48;3.40;;;2.05;;
55915;SDS011;41826;53.246;-6.670;2023-04-03T04:47:14;2.00;;;1.90;;
55915;SDS011;41826;53.246;-6.670;2023-04-03T04:49:39;4.25;;;2.45;;
55915;SDS011;41826;53.246;-6.670;2023-04-03T04:52:05;4.45;;;2.30;;
55915;SDS011;41826;53.246;-6.670;2023-04-03T04:54:31;2.85;;;1.92;;
55915;SDS011;41826;53.246;-6.670;2023-04-03T04:56:56;3.20;;;2.40;;
55915;SDS011;41826;53.246;-6.670;2023-04-03T04:59:22;3.80;;;2.22;;
55915;SDS011;41826;53.246;-6.670;2023-04-03T05:01:47;3.65;;;2.28;;
55915;SDS011;41826;53.246;-6.670;2023-04-03T05:04:12;5.55;;;2.70;;
55915;SDS011;41826;53.246;-6.670;2023-04-03T05:06:38;1.83;;;1.55;;
55915;SDS011;41826;53.246;-6.670;2023-04-03T05:09:04;3.40;;;2.70;;
55915;SDS011;41826;53.246;-6.670;2023-04-03T05:11:30;5.10;;;2.58;;
55915;SDS011;41826;53.246;-6.670;2023-04-03T05:13:55;1.85;;;1.60;;
55915;SDS011;41826;53.246;-6.670;2023-04-03T05:16:21;2.40;;;2.03;;
55915;SDS011;41826;53.246;-6.670;2023-04-03T05:18:46;1.95;;;1.48;;
55915;SDS011;41826;53.246;-6.670;2023-04-03T05:21:11;1.88;;;1.60;;
55915;SDS011;41826;53.246;-6.670;2023-04-03T05:23:37;1.48;;;1.25;;
55915;SDS011;41826;53.246;-6.670;2023-04-03T05:26:02;2.80;;;1.63;;
55915;SDS011;41826;53.246;-6.670;2023-04-03T05:28:28;1.27;;;1.17;;
55915;SDS011;41826;53.246;-6.670;2023-04-03T05:30:56;4.03;;;1.98;;
55915;SDS011;41826;53.246;-6.670;2023-04-03T05:33:23;1.98;;;1.33;;
55915;SDS011;41826;53.246;-6.670;2023-04-03T05:35:50;2.25;;;1.45;;
55915;SDS011;41826;53.246;-6.670;2023-04-03T05:38:15;2.35;;;2.15;;
55915;SDS011;41826;53.246;-6.670;2023-04-03T05:40:41;7.10;;;2.65;;
55915;SDS011;41826;53.246;-6.670;2023-04-03T05:43:07;3.88;;;2.03;;
55915;SDS011;41826;53.246;-6.670;2023-04-03T05:45:32;4.57;;;2.65;;
55915;SDS011;41826;53.246;-6.670;2023-04-03T05:47:57;2.28;;;2.08;;
55915;SDS011;41826;53.246;-6.670;2023-04-03T05:50:23;1.30;;;1.20;;
55915;SDS011;41826;53.246;-6.670;2023-04-03T05:52:48;4.50;;;1.48;;
55915;SDS011;41826;53.246;-6.670;2023-04-03T05:55:15;3.20;;;1.77;;
55915;SDS011;41826;53.246;-6.670;2023-04-03T05:57:41;5.15;;;2.88;;
55915;SDS011;41826;53.246;-6.670;2023-04-03T06:00:07;9.07;;;3.73;;
55915;SDS011;41826;53.246;-6.670;2023-04-03T06:02:37;4.60;;;2.88;;
55915;SDS011;41826;53.246;-6.670;2023-04-03T06:05:03;3.83;;;1.65;;
55915;SDS011;41826;53.246;-6.670;2023-04-03T06:07:29;16.38;;;5.38;;
55915;SDS011;41826;53.246;-6.670;2023-04-03T06:09:55;1.98;;;1.48;;
55915;SDS011;41826;53.246;-6.670;2023-04-03T06:12:22;7.05;;;1.75;;
55915;SDS011;41826;53.246;-6.670;2023-04-03T06:14:47;3.90;;;1.92;;
55915;SDS011;41826;53.246;-6.670;2023-04-03T06:17:14;4.93;;;2.17;;
55915;SDS011;41826;53.246;-6.670;2023-04-03T06:19:40;4.55;;;2.60;;
55915;SDS011;41826;53.246;-6.670;2023-04-03T06:22:06;5.72;;;2.33;;
55915;SDS011;41826;53.246;-6.670;2023-04-03T06:24:32;3.15;;;1.98;;
55915;SDS011;41826;53.246;-6.670;2023-04-03T06:26:57;4.18;;;1.70;;
55915;SDS011;41826;53.246;-6.670;2023-04-03T06:29:23;4.47;;;2.40;;
55915;SDS011;41826;53.246;-6.670;2023-04-03T06:31:49;5.75;;;1.80;;
55915;SDS011;41826;53.246;-6.670;2023-04-03T06:34:15;2.83;;;2.15;;
55915;SDS011;41826;53.246;-6.670;2023-04-03T06:36:41;4.57;;;2.72;;
55915;SDS011;41826;53.246;-6.670;2023-04-03T06:39:08;3.17;;;1.73;;
55915;SDS011;41826;53.246;-6.670;2023-04-03T06:41:38;5.78;;;1.70;;
55915;SDS011;41826;53.246;-6.670;2023-04-03T06:44:03;6.75;;;2.78;;
55915;SDS011;41826;53.246;-6.670;2023-04-03T06:46:29;3.67;;;2.55;;
55915;SDS011;41826;53.246;-6.670;2023-04-03T06:48:54;6.68;;;2.85;;
55915;SDS011;41826;53.246;-6.670;2023-04-03T06:51:27;5.80;;;3.28;;
55915;SDS011;41826;53.246;-6.670;2023-04-03T06:53:54;5.88;;;2.42;;
55915;SDS011;41826;53.246;-6.670;2023-04-03T06:56:22;5.10;;;2.83;;
55915;SDS011;41826;53.246;-6.670;2023-04-03T06:58:48;2.25;;;2.03;;
55915;SDS011;41826;53.246;-6.670;2023-04-03T07:01:14;2.38;;;1.70;;
55915;SDS011;41826;53.246;-6.670;2023-04-03T07:03:41;2.25;;;2.05;;
55915;SDS011;41826;53.246;-6.670;2023-04-03T07:06:08;7.88;;;2.83;;
55915;SDS011;41826;53.246;-6.670;2023-04-03T07:08:36;6.57;;;2.00;;
55915;SDS011;41826;53.246;-6.670;2023-04-03T07:11:02;3.47;;;2.30;;
55915;SDS011;41826;53.246;-6.670;2023-04-03T07:13:28;3.10;;;1.67;;
55915;SDS011;41826;53.246;-6.670;2023-04-03T07:15:53;3.65;;;2.05;;
55915;SDS011;41826;53.246;-6.670;2023-04-03T07:18:19;4.70;;;2.47;;
55915;SDS011;41826;53.246;-6.670;2023-04-03T07:20:46;5.10;;;2.92;;
55915;SDS011;41826;53.246;-6.670;2023-04-03T07:23:12;3.35;;;1.77;;
55915;SDS011;41826;53.246;-6.670;2023-04-03T07:25:42;6.78;;;2.67;;
55915;SDS011;41826;53.246;-6.670;2023-04-03T07:28:09;8.68;;;3.45;;
55915;SDS011;41826;53.246;-6.670;2023-04-03T07:30:34;6.15;;;2.08;;
55915;SDS011;41826;53.246;-6.670;2023-04-03T07:33:00;2.88;;;2.08;;
55915;SDS011;41826;53.246;-6.670;2023-04-03T07:35:25;2.55;;;1.80;;
55915;SDS011;41826;53.246;-6.670;2023-04-03T07:37:51;4.10;;;2.75;;
55915;SDS011;41826;53.246;-6.670;2023-04-03T07:40:16;4.22;;;2.60;;
55915;SDS011;41826;53.246;-6.670;2023-04-03T07:42:42;5.20;;;2.78;;
55915;SDS011;41826;53.246;-6.670;2023-04-03T07:45:07;8.43;;;3.22;;
55915;SDS011;41826;53.246;-6.670;2023-04-03T07:47:33;5.95;;;2.63;;
55915;SDS011;41826;53.246;-6.670;2023-04-03T07:49:58;2.00;;;1.80;;
55915;SDS011;41826;53.246;-6.670;2023-04-03T07:52:24;7.40;;;3.08;;
55915;SDS011;41826;53.246;-6.670;2023-04-03T07:54:50;2.95;;;1.77;;
55915;SDS011;41826;53.246;-6.670;2023-04-03T07:57:15;4.60;;;2.17;;
55915;SDS011;41826;53.246;-6.670;2023-04-03T07:59:41;8.65;;;3.33;;
55915;SDS011;41826;53.246;-6.670;2023-04-03T08:02:11;6.47;;;3.65;;
55915;SDS011;41826;53.246;-6.670;2023-04-03T08:04:37;7.68;;;3.55;;
55915;SDS011;41826;53.246;-6.670;2023-04-03T08:07:02;9.10;;;3.50;;
55915;SDS011;41826;53.246;-6.670;2023-04-03T08:09:28;9.38;;;3.92;;
55915;SDS011;41826;53.246;-6.670;2023-04-03T08:11:53;9.45;;;3.15;;
55915;SDS011;41826;53.246;-6.670;2023-04-03T08:14:19;10.35;;;3.67;;
55915;SDS011;41826;53.246;-6.670;2023-04-03T08:16:46;4.47;;;2.75;;
55915;SDS011;41826;53.246;-6.670;2023-04-03T08:19:12;5.93;;;3.33;;
55915;SDS011;41826;53.246;-6.670;2023-04-03T08:21:39;13.15;;;4.70;;
55915;SDS011;41826;53.246;-6.670;2023-04-03T08:24:06;3.22;;;2.30;;
55915;SDS011;41826;53.246;-6.670;2023-04-03T08:26:33;6.03;;;2.92;;
55915;SDS011;41826;53.246;-6.670;2023-04-03T08:28:58;3.90;;;2.70;;
55915;SDS011;41826;53.246;-6.670;2023-04-03T08:31:24;6.15;;;2.40;;
55915;SDS011;41826;53.246;-6.670;2023-04-03T08:33:49;10.65;;;2.53;;
55915;SDS011;41826;53.246;-6.670;2023-04-03T08:36:20;4.85;;;2.33;;
55915;SDS011;41826;53.246;-6.670;2023-04-03T08:38:48;5.07;;;2.22;;
55915;SDS011;41826;53.246;-6.670;2023-04-03T08:41:33;4.85;;;2.17;;
55915;SDS011;41826;53.246;-6.670;2023-04-03T08:50:00;7.10;;;2.47;;
55915;SDS011;41826;53.246;-6.670;2023-04-03T08:52:39;9.27;;;1.85;;
55915;SDS011;41826;53.246;-6.670;2023-04-03T08:55:24;4.85;;;1.67;;
55915;SDS011;41826;53.246;-6.670;2023-04-03T09:03:14;3.90;;;2.23;;
55915;SDS011;41826;53.246;-6.670;2023-04-03T09:11:00;8.05;;;2.30;;
55915;SDS011;41826;53.246;-6.670;2023-04-03T09:13:35;4.63;;;1.90;;
55915;SDS011;41826;53.246;-6.670;2023-04-03T09:19:05;5.38;;;2.38;;
55915;SDS011;41826;53.246;-6.670;2023-04-03T09:21:46;6.20;;;2.13;;
55915;SDS011;41826;53.246;-6.670;2023-04-03T09:24:12;9.95;;;2.70;;
55915;SDS011;41826;53.246;-6.670;2023-04-03T09:26:48;4.05;;;2.33;;
55915;SDS011;41826;53.246;-6.670;2023-04-03T09:29:21;6.15;;;1.98;;
55915;SDS011;41826;53.246;-6.670;2023-04-03T09:31:49;4.18;;;2.28;;
55915;SDS011;41826;53.246;-6.670;2023-04-03T09:34:20;3.15;;;1.80;;
55915;SDS011;41826;53.246;-6.670;2023-04-03T09:36:50;7.90;;;1.67;;
55915;SDS011;41826;53.246;-6.670;2023-04-03T09:39:18;3.13;;;1.48;;
55915;SDS011;41826;53.246;-6.670;2023-04-03T09:41:59;8.55;;;1.50;;
55915;SDS011;41826;53.246;-6.670;2023-04-03T09:44:28;4.18;;;1.77;;
55915;SDS011;41826;53.246;-6.670;2023-04-03T09:46:59;3.20;;;1.20;;
55915;SDS011;41826;53.246;-6.670;2023-04-03T09:52:17;4.22;;;1.60;;
55915;SDS011;41826;53.246;-6.670;2023-04-03T09:54:50;6.72;;;1.65;;
55915;SDS011;41826;53.246;-6.670;2023-04-03T09:57:16;3.60;;;1.30;;
55915;SDS011;41826;53.246;-6.670;2023-04-03T09:59:58;3.75;;;1.75;;
55915;SDS011;41826;53.246;-6.670;2023-04-03T10:02:33;6.00;;;1.83;;
55915;SDS011;41826;53.246;-6.670;2023-04-03T10:04:59;3.42;;;1.70;;
55915;SDS011;41826;53.246;-6.670;2023-04-03T10:07:35;5.50;;;1.50;;
55915;SDS011;41826;53.246;-6.670;2023-04-03T10:10:15;6.07;;;1.40;;
55915;SDS011;41826;53.246;-6.670;2023-04-03T10:12:43;2.53;;;1.13;;
55915;SDS011;41826;53.246;-6.670;2023-04-03T10:15:12;4.38;;;1.30;;
55915;SDS011;41826;53.246;-6.670;2023-04-03T10:20:39;6.38;;;1.58;;
55915;SDS011;41826;53.246;-6.670;2023-04-03T10:28:31;4.28;;;1.60;;
55915;SDS011;41826;53.246;-6.670;2023-04-03T10:33:42;4.10;;;1.70;;
55915;SDS011;41826;53.246;-6.670;2023-04-03T10:47:16;3.75;;;1.67;;
55915;SDS011;41826;53.246;-6.670;2023-04-03T10:55:36;5.85;;;1.60;;
55915;SDS011;41826;53.246;-6.670;2023-04-03T10:58:14;3.28;;;1.98;;
55915;SDS011;41826;53.246;-6.670;2023-04-03T11:00:49;4.57;;;1.45;;
55915;SDS011;41826;53.246;-6.670;2023-04-03T11:03:35;5.03;;;1.65;;
55915;SDS011;41826;53.246;-6.670;2023-04-03T11:06:07;7.03;;;1.75;;
55915;SDS011;41826;53.246;-6.670;2023-04-03T11:08:40;6.90;;;1.67;;
55915;SDS011;41826;53.246;-6.670;2023-04-03T11:11:20;8.50;;;2.47;;
55915;SDS011;41826;53.246;-6.670;2023-04-03T11:16:23;7.95;;;2.17;;
55915;SDS011;41826;53.246;-6.670;2023-04-03T11:18:52;7.70;;;2.92;;
55915;SDS011;41826;53.246;-6.670;2023-04-03T11:24:05;10.05;;;3.03;;
55915;SDS011;41826;53.246;-6.670;2023-04-03T11:26:45;8.30;;;2.65;;
55915;SDS011;41826;53.246;-6.670;2023-04-03T11:29:14;10.02;;;3.05;;
55915;SDS011;41826;53.246;-6.670;2023-04-03T11:37:04;9.75;;;3.28;;
55915;SDS011;41826;53.246;-6.670;2023-04-03T11:39:55;7.45;;;3.10;;
55915;SDS011;41826;53.246;-6.670;2023-04-03T11:42:34;11.85;;;3.50;;
55915;SDS011;41826;53.246;-6.670;2023-04-03T11:47:48;7.03;;;3.13;;
55915;SDS011;41826;53.246;-6.670;2023-04-03T11:50:39;6.43;;;2.35;;
55915;SDS011;41826;53.246;-6.670;2023-04-03T11:55:44;8.73;;;2.80;;
55915;SDS011;41826;53.246;-6.670;2023-04-03T11:58:14;8.38;;;2.75;;
55915;SDS011;41826;53.246;-6.670;2023-04-03T12:16:09;7.22;;;2.85;;
55915;SDS011;41826;53.246;-6.670;2023-04-03T12:21:14;8.45;;;2.45;;
55915;SDS011;41826;53.246;-6.670;2023-04-03T12:23:57;14.02;;;2.70;;
55915;SDS011;41826;53.246;-6.670;2023-04-03T12:48:14;12.93;;;2.78;;
55915;SDS011;41826;53.246;-6.670;2023-04-03T12:50:41;8.38;;;2.80;;
55915;SDS011;41826;53.246;-6.670;2023-04-03T12:53:12;8.55;;;2.53;;
55915;SDS011;41826;53.246;-6.670;2023-04-03T12:55:42;9.43;;;2.67;;
55915;SDS011;41826;53.246;-6.670;2023-04-03T12:58:19;11.40;;;2.58;;
55915;SDS011;41826;53.246;-6.670;2023-04-03T13:00:58;8.88;;;2.22;;
55915;SDS011;41826;53.246;-6.670;2023-04-03T13:03:28;7.82;;;2.63;;
55915;SDS011;41826;53.246;-6.670;2023-04-03T13:05:55;8.65;;;2.58;;
55915;SDS011;41826;53.246;-6.670;2023-04-03T13:08:24;9.73;;;3.20;;
55915;SDS011;41826;53.246;-6.670;2023-04-03T13:13:20;6.75;;;2.28;;
55915;SDS011;41826;53.246;-6.670;2023-04-03T13:15:48;10.07;;;2.88;;
55915;SDS011;41826;53.246;-6.670;2023-04-03T13:18:25;10.23;;;2.63;;
55915;SDS011;41826;53.246;-6.670;2023-04-03T13:21:01;10.57;;;3.05;;
55915;SDS011;41826;53.246;-6.670;2023-04-03T13:23:40;9.38;;;2.45;;
55915;SDS011;41826;53.246;-6.670;2023-04-03T13:26:09;6.82;;;2.05;;
55915;SDS011;41826;53.246;-6.670;2023-04-03T13:28:36;9.95;;;2.50;;
55915;SDS011;41826;53.246;-6.670;2023-04-03T13:31:46;11.18;;;2.58;;
55915;SDS011;41826;53.246;-6.670;2023-04-03T13:36:34;6.30;;;2.28;;
55915;SDS011;41826;53.246;-6.670;2023-04-03T13:41:36;8.32;;;2.17;;
55915;SDS011;41826;53.246;-6.670;2023-04-03T13:46:50;11.95;;;1.92;;
55915;SDS011;41826;53.246;-6.670;2023-04-03T13:54:52;9.95;;;3.10;;
55915;SDS011;41826;53.246;-6.670;2023-04-03T13:57:21;11.57;;;1.95;;
55915;SDS011;41826;53.246;-6.670;2023-04-03T13:59:47;5.65;;;2.15;;
55915;SDS011;41826;53.246;-6.670;2023-04-03T14:02:20;10.38;;;2.13;;
55915;SDS011;41826;53.246;-6.670;2023-04-03T14:04:59;4.88;;;1.83;;
55915;SDS011;41826;53.246;-6.670;2023-04-03T14:07:27;6.47;;;1.67;;
55915;SDS011;41826;53.246;-6.670;2023-04-03T14:09:54;4.32;;;1.30;;
55915;SDS011;41826;53.246;-6.670;2023-04-03T14:14:54;3.97;;;1.58;;
55915;SDS011;41826;53.246;-6.670;2023-04-03T14:17:21;9.25;;;1.88;;
55915;SDS011;41826;53.246;-6.670;2023-04-03T14:19:49;7.45;;;1.50;;
55915;SDS011;41826;53.246;-6.670;2023-04-03T14:22:17;4.22;;;1.98;;
55915;SDS011;41826;53.246;-6.670;2023-04-03T14:24:48;3.33;;;1.27;;
55915;SDS011;41826;53.246;-6.670;2023-04-03T14:27:25;8.48;;;1.48;;
55915;SDS011;41826;53.246;-6.670;2023-04-03T14:29:58;4.00;;;1.65;;
55915;SDS011;41826;53.246;-6.670;2023-04-03T14:32:24;6.68;;;1.40;;
55915;SDS011;41826;53.246;-6.670;2023-04-03T14:34:51;4.63;;;1.55;;
55915;SDS011;41826;53.246;-6.670;2023-04-03T14:37:18;5.03;;;1.70;;
55915;SDS011;41826;53.246;-6.670;2023-04-03T14:39:45;6.28;;;1.35;;
55915;SDS011;41826;53.246;-6.670;2023-04-03T14:42:13;4.13;;;1.38;;
55915;SDS011;41826;53.246;-6.670;2023-04-03T14:44:41;6.00;;;1.70;;
55915;SDS011;41826;53.246;-6.670;2023-04-03T14:47:09;2.60;;;1.10;;
55915;SDS011;41826;53.246;-6.670;2023-04-03T14:49:36;4.28;;;1.48;;
55915;SDS011;41826;53.246;-6.670;2023-04-03T14:52:01;5.50;;;1.38;;
55915;SDS011;41826;53.246;-6.670;2023-04-03T14:54:27;6.30;;;1.40;;
55915;SDS011;41826;53.246;-6.670;2023-04-03T14:56:54;4.10;;;1.25;;
55915;SDS011;41826;53.246;-6.670;2023-04-03T14:59:21;4.40;;;1.70;;
55915;SDS011;41826;53.246;-6.670;2023-04-03T15:01:48;5.32;;;1.50;;
55915;SDS011;41826;53.246;-6.670;2023-04-03T15:04:17;4.50;;;1.42;;
55915;SDS011;41826;53.246;-6.670;2023-04-03T15:06:45;5.85;;;1.58;;
55915;SDS011;41826;53.246;-6.670;2023-04-03T15:09:18;5.88;;;1.60;;
55915;SDS011;41826;53.246;-6.670;2023-04-03T15:11:47;13.40;;;1.63;;
55915;SDS011;41826;53.246;-6.670;2023-04-03T15:14:14;6.50;;;1.10;;
55915;SDS011;41826;53.246;-6.670;2023-04-03T15:16:40;7.47;;;1.35;;
55915;SDS011;41826;53.246;-6.670;2023-04-03T15:19:05;4.07;;;1.60;;
55915;SDS011;41826;53.246;-6.670;2023-04-03T15:21:30;6.20;;;1.80;;
55915;SDS011;41826;53.246;-6.670;2023-04-03T15:23:56;5.80;;;2.03;;
55915;SDS011;41826;53.246;-6.670;2023-04-03T15:26:21;6.90;;;2.42;;
55915;SDS011;41826;53.246;-6.670;2023-04-03T15:28:46;8.45;;;2.17;;
55915;SDS011;41826;53.246;-6.670;2023-04-03T15:31:12;4.22;;;1.80;;
55915;SDS011;41826;53.246;-6.670;2023-04-03T15:33:38;7.68;;;2.05;;
55915;SDS011;41826;53.246;-6.670;2023-04-03T15:36:03;10.98;;;1.70;;
55915;SDS011;41826;53.246;-6.670;2023-04-03T15:38:29;6.07;;;1.67;;
55915;SDS011;41826;53.246;-6.670;2023-04-03T15:40:55;6.25;;;1.60;;
55915;SDS011;41826;53.246;-6.670;2023-04-03T15:43:21;6.72;;;1.80;;
55915;SDS011;41826;53.246;-6.670;2023-04-03T15:45:47;3.70;;;1.70;;
55915;SDS011;41826;53.246;-6.670;2023-04-03T15:48:12;6.88;;;2.03;;
55915;SDS011;41826;53.246;-6.670;2023-04-03T15:50:38;4.00;;;1.80;;
55915;SDS011;41826;53.246;-6.670;2023-04-03T15:53:05;4.25;;;1.50;;
55915;SDS011;41826;53.246;-6.670;2023-04-03T15:55:32;7.18;;;1.83;;
55915;SDS011;41826;53.246;-6.670;2023-04-03T15:57:59;5.07;;;1.70;;
55915;SDS011;41826;53.246;-6.670;2023-04-03T16:00:26;4.20;;;1.88;;
55915;SDS011;41826;53.246;-6.670;2023-04-03T16:02:53;6.13;;;1.90;;
55915;SDS011;41826;53.246;-6.670;2023-04-03T16:05:23;2.80;;;1.52;;
55915;SDS011;41826;53.246;-6.670;2023-04-03T16:07:49;4.32;;;1.45;;
55915;SDS011;41826;53.246;-6.670;2023-04-03T16:10:15;5.18;;;1.75;;
55915;SDS011;41826;53.246;-6.670;2023-04-03T16:12:42;6.75;;;1.80;;
55915;SDS011;41826;53.246;-6.670;2023-04-03T16:15:07;6.75;;;1.83;;
55915;SDS011;41826;53.246;-6.670;2023-04-03T16:17:34;6.85;;;1.80;;
55915;SDS011;41826;53.246;-6.670;2023-04-03T16:20:02;3.15;;;1.80;;
55915;SDS011;41826;53.246;-6.670;2023-04-03T16:22:29;6.68;;;1.50;;
55915;SDS011;41826;53.246;-6.670;2023-04-03T16:24:55;5.15;;;1.25;;
55915;SDS011;41826;53.246;-6.670;2023-04-03T16:27:20;5.90;;;1.63;;
55915;SDS011;41826;53.246;-6.670;2023-04-03T16:29:46;7.07;;;1.58;;
55915;SDS011;41826;53.246;-6.670;2023-04-03T16:32:12;3.67;;;1.35;;
55915;SDS011;41826;53.246;-6.670;2023-04-03T16:34:40;4.68;;;1.20;;
55915;SDS011;41826;53.246;-6.670;2023-04-03T16:37:05;4.43;;;1.60;;
55915;SDS011;41826;53.246;-6.670;2023-04-03T16:39:33;5.82;;;1.70;;
55915;SDS011;41826;53.246;-6.670;2023-04-03T16:41:59;5.03;;;1.75;;
55915;SDS011;41826;53.246;-6.670;2023-04-03T16:44:25;3.47;;;1.63;;
55915;SDS011;41826;53.246;-6.670;2023-04-03T16:46:51;5.70;;;1.90;;
55915;SDS011;41826;53.246;-6.670;2023-04-03T16:49:16;5.13;;;1.88;;
55915;SDS011;41826;53.246;-6.670;2023-04-03T16:51:42;6.25;;;1.92;;
55915;SDS011;41826;53.246;-6.670;2023-04-03T16:54:07;6.75;;;1.85;;